sensor_id;sensor_type;location;lat;lon;timestamp;temperature;humidity
48328;DHT22;34136;51.022;7.082;2023-08-17T00:00:19;21.40;1.00
48328;DHT22;34136;51.022;7.082;2023-08-17T00:03:05;21.30;1.00
48328;DHT22;34136;51.022;7.082;2023-08-17T00:05:51;21.20;1.00
48328;DHT22;34136;51.022;7.082;2023-08-17T00:08:38;21.10;1.00
48328;DHT22;34136;51.022;7.082;2023-08-17T00:11:24;21.10;1.00
48328;DHT22;34136;51.022;7.082;2023-08-17T00:14:10;21.10;1.00
48328;DHT22;34136;51.022;7.082;2023-08-17T00:16:57;21.00;1.00
48328;DHT22;34136;51.022;7.082;2023-08-17T00:19:43;20.90;1.00
48328;DHT22;34136;51.022;7.082;2023-08-17T00:22:29;21.00;1.00
48328;DHT22;34136;51.022;7.082;2023-08-17T00:25:15;21.00;1.00
48328;DHT22;34136;51.022;7.082;2023-08-17T00:28:01;21.00;1.00
48328;DHT22;34136;51.022;7.082;2023-08-17T00:30:47;21.00;1.00
48328;DHT22;34136;51.022;7.082;2023-08-17T00:33:33;20.80;1.00
48328;DHT22;34136;51.022;7.082;2023-08-17T00:36:20;20.80;1.00
48328;DHT22;34136;51.022;7.082;2023-08-17T00:39:06;20.70;1.00
48328;DHT22;34136;51.022;7.082;2023-08-17T00:41:52;20.80;1.00
48328;DHT22;34136;51.022;7.082;2023-08-17T00:44:39;20.80;1.00
48328;DHT22;34136;51.022;7.082;2023-08-17T00:47:25;20.70;1.00
48328;DHT22;34136;51.022;7.082;2023-08-17T00:50:12;20.80;1.00
48328;DHT22;34136;51.022;7.082;2023-08-17T00:52:58;20.80;1.00
48328;DHT22;34136;51.022;7.082;2023-08-17T00:55:47;20.60;1.00
48328;DHT22;34136;51.022;7.082;2023-08-17T00:58:34;20.60;1.00
48328;DHT22;34136;51.022;7.082;2023-08-17T01:01:21;20.40;1.00
48328;DHT22;34136;51.022;7.082;2023-08-17T01:04:08;20.30;1.00
48328;DHT22;34136;51.022;7.082;2023-08-17T01:06:54;20.20;1.00
48328;DHT22;34136;51.022;7.082;2023-08-17T01:09:41;20.10;1.00
48328;DHT22;34136;51.022;7.082;2023-08-17T01:12:33;20.10;1.00
48328;DHT22;34136;51.022;7.082;2023-08-17T01:15:30;20.10;1.00
48328;DHT22;34136;51.022;7.082;2023-08-17T01:18:23;20.10;1.00
48328;DHT22;34136;51.022;7.082;2023-08-17T01:21:13;20.00;1.00
48328;DHT22;34136;51.022;7.082;2023-08-17T01:24:04;19.90;1.00
48328;DHT22;34136;51.022;7.082;2023-08-17T01:26:50;19.90;1.00
48328;DHT22;34136;51.022;7.082;2023-08-17T01:29:36;19.80;1.00
48328;DHT22;34136;51.022;7.082;2023-08-17T01:32:29;19.80;1.00
48328;DHT22;34136;51.022;7.082;2023-08-17T01:35:28;19.70;1.00
48328;DHT22;34136;51.022;7.082;2023-08-17T01:38:18;19.70;1.00
48328;DHT22;34136;51.022;7.082;2023-08-17T01:41:09;19.60;1.00
48328;DHT22;34136;51.022;7.082;2023-08-17T01:43:56;19.50;1.00
48328;DHT22;34136;51.022;7.082;2023-08-17T01:46:44;19.50;1.00
48328;DHT22;34136;51.022;7.082;2023-08-17T01:49:30;19.40;1.00
48328;DHT22;34136;51.022;7.082;2023-08-17T01:52:16;19.40;1.00
48328;DHT22;34136;51.022;7.082;2023-08-17T01:55:03;19.40;1.00
48328;DHT22;34136;51.022;7.082;2023-08-17T01:57:50;19.40;1.00
48328;DHT22;34136;51.022;7.082;2023-08-17T02:00:36;19.40;1.00
48328;DHT22;34136;51.022;7.082;2023-08-17T02:03:32;19.40;1.00
48328;DHT22;34136;51.022;7.082;2023-08-17T02:06:19;19.40;1.00
48328;DHT22;34136;51.022;7.082;2023-08-17T02:09:05;19.40;1.00
48328;DHT22;34136;51.022;7.082;2023-08-17T02:11:52;19.30;1.00
48328;DHT22;34136;51.022;7.082;2023-08-17T02:14:38;19.30;1.00
48328;DHT22;34136;51.022;7.082;2023-08-17T02:17:24;19.40;1.00
48328;DHT22;34136;51.022;7.082;2023-08-17T02:20:11;19.40;1.00
48328;DHT22;34136;51.022;7.082;2023-08-17T02:22:57;19.50;1.00
48328;DHT22;34136;51.022;7.082;2023-08-17T02:25:43;19.60;1.00
48328;DHT22;34136;51.022;7.082;2023-08-17T02:28:30;19.60;1.00
48328;DHT22;34136;51.022;7.082;2023-08-17T02:31:16;19.60;1.00
48328;DHT22;34136;51.022;7.082;2023-08-17T02:34:02;19.60;1.00
48328;DHT22;34136;51.022;7.082;2023-08-17T02:36:49;19.60;1.00
48328;DHT22;34136;51.022;7.082;2023-08-17T02:39:35;19.60;1.00
48328;DHT22;34136;51.022;7.082;2023-08-17T02:42:21;19.60;1.00
48328;DHT22;34136;51.022;7.082;2023-08-17T02:45:09;19.50;1.00
48328;DHT22;34136;51.022;7.082;2023-08-17T02:47:55;19.60;1.00
48328;DHT22;34136;51.022;7.082;2023-08-17T02:50:42;19.60;1.00
48328;DHT22;34136;51.022;7.082;2023-08-17T02:53:28;19.60;1.00
48328;DHT22;34136;51.022;7.082;2023-08-17T02:56:14;19.70;1.00
48328;DHT22;34136;51.022;7.082;2023-08-17T02:59:01;19.60;1.00
48328;DHT22;34136;51.022;7.082;2023-08-17T03:01:47;19.70;1.00
48328;DHT22;34136;51.022;7.082;2023-08-17T03:04:33;19.70;1.00
48328;DHT22;34136;51.022;7.082;2023-08-17T03:07:19;19.80;1.00
48328;DHT22;34136;51.022;7.082;2023-08-17T03:10:06;19.70;1.00
48328;DHT22;34136;51.022;7.082;2023-08-17T03:12:53;19.70;1.00
48328;DHT22;34136;51.022;7.082;2023-08-17T03:15:39;19.70;1.00
48328;DHT22;34136;51.022;7.082;2023-08-17T03:18:26;19.60;1.00
48328;DHT22;34136;51.022;7.082;2023-08-17T03:21:13;19.70;1.00
48328;DHT22;34136;51.022;7.082;2023-08-17T03:23:59;19.70;1.00
48328;DHT22;34136;51.022;7.082;2023-08-17T03:26:45;19.50;1.00
48328;DHT22;34136;51.022;7.082;2023-08-17T03:29:32;19.60;1.00
48328;DHT22;34136;51.022;7.082;2023-08-17T03:32:18;19.70;1.00
48328;DHT22;34136;51.022;7.082;2023-08-17T03:35:05;19.50;1.00
48328;DHT22;34136;51.022;7.082;2023-08-17T03:37:52;19.40;1.00
48328;DHT22;34136;51.022;7.082;2023-08-17T03:40:38;19.30;1.00
48328;DHT22;34136;51.022;7.082;2023-08-17T03:43:25;19.30;1.00
48328;DHT22;34136;51.022;7.082;2023-08-17T03:46:11;19.30;1.00
48328;DHT22;34136;51.022;7.082;2023-08-17T03:48:58;19.30;1.00
48328;DHT22;34136;51.022;7.082;2023-08-17T03:51:45;19.40;1.00
48328;DHT22;34136;51.022;7.082;2023-08-17T03:54:31;19.40;1.00
48328;DHT22;34136;51.022;7.082;2023-08-17T03:57:17;19.30;1.00
48328;DHT22;34136;51.022;7.082;2023-08-17T04:00:05;19.30;1.00
48328;DHT22;34136;51.022;7.082;2023-08-17T04:02:59;19.30;1.00
48328;DHT22;34136;51.022;7.082;2023-08-17T04:05:46;19.30;1.00
48328;DHT22;34136;51.022;7.082;2023-08-17T04:08:32;19.30;1.00
48328;DHT22;34136;51.022;7.082;2023-08-17T04:11:19;19.30;1.00
48328;DHT22;34136;51.022;7.082;2023-08-17T04:14:07;19.30;1.00
48328;DHT22;34136;51.022;7.082;2023-08-17T04:16:53;19.30;1.00
48328;DHT22;34136;51.022;7.082;2023-08-17T04:19:39;19.30;1.00
48328;DHT22;34136;51.022;7.082;2023-08-17T04:22:28;19.30;1.00
48328;DHT22;34136;51.022;7.082;2023-08-17T04:25:15;19.40;1.00
48328;DHT22;34136;51.022;7.082;2023-08-17T04:28:01;19.40;1.00
48328;DHT22;34136;51.022;7.082;2023-08-17T04:30:48;19.40;1.00
48328;DHT22;34136;51.022;7.082;2023-08-17T04:33:35;19.30;1.00
48328;DHT22;34136;51.022;7.082;2023-08-17T04:36:21;19.20;1.00
48328;DHT22;34136;51.022;7.082;2023-08-17T04:39:08;19.30;1.00
48328;DHT22;34136;51.022;7.082;2023-08-17T04:41:53;19.30;1.00
48328;DHT22;34136;51.022;7.082;2023-08-17T04:44:46;19.40;1.00
48328;DHT22;34136;51.022;7.082;2023-08-17T04:47:32;19.40;1.00
48328;DHT22;34136;51.022;7.082;2023-08-17T04:50:19;19.50;1.00
48328;DHT22;34136;51.022;7.082;2023-08-17T04:53:05;19.50;1.00
48328;DHT22;34136;51.022;7.082;2023-08-17T04:55:51;19.40;1.00
48328;DHT22;34136;51.022;7.082;2023-08-17T04:58:37;19.50;1.00
48328;DHT22;34136;51.022;7.082;2023-08-17T05:01:24;19.50;1.00
48328;DHT22;34136;51.022;7.082;2023-08-17T05:04:10;19.50;1.00
48328;DHT22;34136;51.022;7.082;2023-08-17T05:06:56;19.50;1.00
48328;DHT22;34136;51.022;7.082;2023-08-17T05:09:42;19.40;1.00
48328;DHT22;34136;51.022;7.082;2023-08-17T05:12:29;19.40;1.00
48328;DHT22;34136;51.022;7.082;2023-08-17T05:15:15;19.40;1.00
48328;DHT22;34136;51.022;7.082;2023-08-17T05:18:02;19.40;1.00
48328;DHT22;34136;51.022;7.082;2023-08-17T05:20:48;19.50;1.00
48328;DHT22;34136;51.022;7.082;2023-08-17T05:23:35;19.40;1.00
48328;DHT22;34136;51.022;7.082;2023-08-17T05:26:21;19.40;1.00
48328;DHT22;34136;51.022;7.082;2023-08-17T05:29:07;19.40;1.00
48328;DHT22;34136;51.022;7.082;2023-08-17T05:31:53;19.40;1.00
48328;DHT22;34136;51.022;7.082;2023-08-17T05:34:40;19.40;1.00
48328;DHT22;34136;51.022;7.082;2023-08-17T05:37:26;19.50;1.00
48328;DHT22;34136;51.022;7.082;2023-08-17T05:40:12;19.50;1.00
48328;DHT22;34136;51.022;7.082;2023-08-17T05:42:59;19.50;1.00
48328;DHT22;34136;51.022;7.082;2023-08-17T05:45:45;19.60;1.00
48328;DHT22;34136;51.022;7.082;2023-08-17T05:48:32;19.60;1.00
48328;DHT22;34136;51.022;7.082;2023-08-17T05:51:18;19.70;1.00
48328;DHT22;34136;51.022;7.082;2023-08-17T05:54:04;19.60;1.00
48328;DHT22;34136;51.022;7.082;2023-08-17T05:56:51;19.70;1.00
48328;DHT22;34136;51.022;7.082;2023-08-17T05:59:37;19.70;1.00
48328;DHT22;34136;51.022;7.082;2023-08-17T06:02:23;19.80;1.00
48328;DHT22;34136;51.022;7.082;2023-08-17T06:05:09;19.80;1.00
48328;DHT22;34136;51.022;7.082;2023-08-17T06:07:56;19.70;1.00
48328;DHT22;34136;51.022;7.082;2023-08-17T06:10:43;19.80;1.00
48328;DHT22;34136;51.022;7.082;2023-08-17T06:13:29;19.70;1.00
48328;DHT22;34136;51.022;7.082;2023-08-17T06:16:15;19.70;1.00
48328;DHT22;34136;51.022;7.082;2023-08-17T06:19:02;19.80;1.00
48328;DHT22;34136;51.022;7.082;2023-08-17T06:21:48;19.80;1.00
48328;DHT22;34136;51.022;7.082;2023-08-17T06:24:35;19.80;1.00
48328;DHT22;34136;51.022;7.082;2023-08-17T06:27:21;19.90;1.00
48328;DHT22;34136;51.022;7.082;2023-08-17T06:30:07;20.00;1.00
48328;DHT22;34136;51.022;7.082;2023-08-17T06:32:54;20.00;1.00
48328;DHT22;34136;51.022;7.082;2023-08-17T06:35:40;20.10;1.00
48328;DHT22;34136;51.022;7.082;2023-08-17T06:38:27;20.10;1.00
48328;DHT22;34136;51.022;7.082;2023-08-17T06:41:13;20.20;1.00
48328;DHT22;34136;51.022;7.082;2023-08-17T06:43:59;20.30;1.00
48328;DHT22;34136;51.022;7.082;2023-08-17T06:46:46;20.40;1.00
48328;DHT22;34136;51.022;7.082;2023-08-17T06:49:32;20.60;1.00
48328;DHT22;34136;51.022;7.082;2023-08-17T06:52:19;20.50;1.00
48328;DHT22;34136;51.022;7.082;2023-08-17T06:55:05;20.60;1.00
48328;DHT22;34136;51.022;7.082;2023-08-17T06:57:52;20.70;1.00
48328;DHT22;34136;51.022;7.082;2023-08-17T07:00:38;20.80;1.00
48328;DHT22;34136;51.022;7.082;2023-08-17T07:03:25;20.60;1.00
48328;DHT22;34136;51.022;7.082;2023-08-17T07:06:11;20.60;1.00
48328;DHT22;34136;51.022;7.082;2023-08-17T07:08:57;20.50;1.00
48328;DHT22;34136;51.022;7.082;2023-08-17T07:11:44;20.50;1.00
48328;DHT22;34136;51.022;7.082;2023-08-17T07:14:30;20.60;1.00
48328;DHT22;34136;51.022;7.082;2023-08-17T07:17:17;20.70;1.00
48328;DHT22;34136;51.022;7.082;2023-08-17T07:20:04;20.80;1.00
48328;DHT22;34136;51.022;7.082;2023-08-17T07:22:50;20.80;1.00
48328;DHT22;34136;51.022;7.082;2023-08-17T07:25:37;21.00;1.00
48328;DHT22;34136;51.022;7.082;2023-08-17T07:28:23;21.00;1.00
48328;DHT22;34136;51.022;7.082;2023-08-17T07:31:09;21.00;1.00
48328;DHT22;34136;51.022;7.082;2023-08-17T07:33:55;21.00;1.00
48328;DHT22;34136;51.022;7.082;2023-08-17T07:36:42;21.20;1.00
48328;DHT22;34136;51.022;7.082;2023-08-17T07:39:28;21.20;1.00
48328;DHT22;34136;51.022;7.082;2023-08-17T07:42:14;21.20;1.40
48328;DHT22;34136;51.022;7.082;2023-08-17T07:45:02;21.10;1.00
48328;DHT22;34136;51.022;7.082;2023-08-17T07:47:48;21.30;1.40
48328;DHT22;34136;51.022;7.082;2023-08-17T07:50:34;21.10;1.40
48328;DHT22;34136;51.022;7.082;2023-08-17T07:53:20;21.20;1.40
48328;DHT22;34136;51.022;7.082;2023-08-17T07:56:07;21.00;1.00
48328;DHT22;34136;51.022;7.082;2023-08-17T07:58:54;21.10;1.00
48328;DHT22;34136;51.022;7.082;2023-08-17T08:01:40;21.10;1.00
48328;DHT22;34136;51.022;7.082;2023-08-17T08:04:26;21.20;1.00
48328;DHT22;34136;51.022;7.082;2023-08-17T08:07:12;21.20;1.00
48328;DHT22;34136;51.022;7.082;2023-08-17T08:09:58;21.30;1.00
48328;DHT22;34136;51.022;7.082;2023-08-17T08:12:44;21.50;99.90
48328;DHT22;34136;51.022;7.082;2023-08-17T08:15:32;21.50;99.90
48328;DHT22;34136;51.022;7.082;2023-08-17T08:18:19;21.50;99.90
48328;DHT22;34136;51.022;7.082;2023-08-17T08:21:05;21.70;99.90
48328;DHT22;34136;51.022;7.082;2023-08-17T08:23:51;21.80;99.90
48328;DHT22;34136;51.022;7.082;2023-08-17T08:26:37;21.90;99.90
48328;DHT22;34136;51.022;7.082;2023-08-17T08:29:23;21.80;99.90
48328;DHT22;34136;51.022;7.082;2023-08-17T08:32:10;21.80;99.90
48328;DHT22;34136;51.022;7.082;2023-08-17T08:34:56;21.70;99.90
48328;DHT22;34136;51.022;7.082;2023-08-17T08:37:42;21.70;99.90
48328;DHT22;34136;51.022;7.082;2023-08-17T08:40:29;21.70;99.90
48328;DHT22;34136;51.022;7.082;2023-08-17T08:43:15;21.70;99.90
48328;DHT22;34136;51.022;7.082;2023-08-17T08:46:02;21.80;99.90
48328;DHT22;34136;51.022;7.082;2023-08-17T08:48:50;21.80;99.90
48328;DHT22;34136;51.022;7.082;2023-08-17T08:51:42;21.90;99.90
48328;DHT22;34136;51.022;7.082;2023-08-17T08:54:30;21.90;99.90
48328;DHT22;34136;51.022;7.082;2023-08-17T08:57:17;21.70;99.90
48328;DHT22;34136;51.022;7.082;2023-08-17T09:00:04;21.70;1.40
48328;DHT22;34136;51.022;7.082;2023-08-17T09:02:52;21.70;99.90
48328;DHT22;34136;51.022;7.082;2023-08-17T09:05:38;21.80;1.40
48328;DHT22;34136;51.022;7.082;2023-08-17T09:08:28;21.80;99.90
48328;DHT22;34136;51.022;7.082;2023-08-17T09:11:14;21.70;99.90
48328;DHT22;34136;51.022;7.082;2023-08-17T09:14:00;21.60;1.00
48328;DHT22;34136;51.022;7.082;2023-08-17T09:16:46;21.70;1.00
48328;DHT22;34136;51.022;7.082;2023-08-17T09:19:33;21.70;1.40
48328;DHT22;34136;51.022;7.082;2023-08-17T09:22:41;21.90;99.90
48328;DHT22;34136;51.022;7.082;2023-08-17T09:25:27;22.10;99.90
48328;DHT22;34136;51.022;7.082;2023-08-17T09:28:15;22.10;99.90
48328;DHT22;34136;51.022;7.082;2023-08-17T09:31:02;22.20;99.90
48328;DHT22;34136;51.022;7.082;2023-08-17T09:33:52;22.20;99.90
48328;DHT22;34136;51.022;7.082;2023-08-17T09:36:39;22.30;99.90
48328;DHT22;34136;51.022;7.082;2023-08-17T09:39:26;22.30;99.90
48328;DHT22;34136;51.022;7.082;2023-08-17T09:42:12;22.40;99.90
48328;DHT22;34136;51.022;7.082;2023-08-17T09:44:58;22.40;99.90
48328;DHT22;34136;51.022;7.082;2023-08-17T09:47:46;22.40;99.90
48328;DHT22;34136;51.022;7.082;2023-08-17T09:50:32;22.30;99.90
48328;DHT22;34136;51.022;7.082;2023-08-17T09:53:19;22.40;99.90
48328;DHT22;34136;51.022;7.082;2023-08-17T09:56:06;22.50;99.90
48328;DHT22;34136;51.022;7.082;2023-08-17T09:58:52;22.60;99.90
48328;DHT22;34136;51.022;7.082;2023-08-17T10:01:39;22.60;99.90
48328;DHT22;34136;51.022;7.082;2023-08-17T10:04:28;22.60;99.90
48328;DHT22;34136;51.022;7.082;2023-08-17T10:07:14;22.60;99.90
48328;DHT22;34136;51.022;7.082;2023-08-17T10:10:04;22.50;99.90
48328;DHT22;34136;51.022;7.082;2023-08-17T10:19:06;22.90;99.90
48328;DHT22;34136;51.022;7.082;2023-08-17T10:22:12;22.70;99.90
48328;DHT22;34136;51.022;7.082;2023-08-17T10:25:01;22.70;99.90
48328;DHT22;34136;51.022;7.082;2023-08-17T10:27:48;22.70;99.90
48328;DHT22;34136;51.022;7.082;2023-08-17T10:30:36;22.90;99.90
48328;DHT22;34136;51.022;7.082;2023-08-17T10:33:23;22.90;99.90
48328;DHT22;34136;51.022;7.082;2023-08-17T10:36:11;22.90;99.90
48328;DHT22;34136;51.022;7.082;2023-08-17T10:39:17;22.80;99.90
48328;DHT22;34136;51.022;7.082;2023-08-17T10:42:04;22.90;99.90
48328;DHT22;34136;51.022;7.082;2023-08-17T10:44:50;22.80;99.90
48328;DHT22;34136;51.022;7.082;2023-08-17T10:47:36;22.80;99.90
48328;DHT22;34136;51.022;7.082;2023-08-17T10:50:24;22.90;99.90
48328;DHT22;34136;51.022;7.082;2023-08-17T10:53:13;22.90;99.90
48328;DHT22;34136;51.022;7.082;2023-08-17T10:55:59;22.90;99.90
48328;DHT22;34136;51.022;7.082;2023-08-17T10:58:46;22.90;99.90
48328;DHT22;34136;51.022;7.082;2023-08-17T11:01:34;22.90;99.90
48328;DHT22;34136;51.022;7.082;2023-08-17T11:04:21;22.80;99.90
48328;DHT22;34136;51.022;7.082;2023-08-17T11:07:13;22.90;99.90
48328;DHT22;34136;51.022;7.082;2023-08-17T11:09:59;22.90;99.90
48328;DHT22;34136;51.022;7.082;2023-08-17T11:12:45;23.10;99.90
48328;DHT22;34136;51.022;7.082;2023-08-17T11:15:39;23.10;99.90
48328;DHT22;34136;51.022;7.082;2023-08-17T11:18:26;23.30;99.90
48328;DHT22;34136;51.022;7.082;2023-08-17T11:21:12;23.30;99.90
48328;DHT22;34136;51.022;7.082;2023-08-17T11:23:59;23.40;99.90
48328;DHT22;34136;51.022;7.082;2023-08-17T11:26:46;23.50;99.90
48328;DHT22;34136;51.022;7.082;2023-08-17T11:29:33;23.70;99.90
48328;DHT22;34136;51.022;7.082;2023-08-17T11:32:19;23.90;99.90
48328;DHT22;34136;51.022;7.082;2023-08-17T11:35:06;24.10;99.90
48328;DHT22;34136;51.022;7.082;2023-08-17T11:37:52;24.30;99.90
48328;DHT22;34136;51.022;7.082;2023-08-17T11:40:39;24.30;99.90
48328;DHT22;34136;51.022;7.082;2023-08-17T11:43:26;24.40;99.90
48328;DHT22;34136;51.022;7.082;2023-08-17T11:46:12;24.20;99.90
48328;DHT22;34136;51.022;7.082;2023-08-17T11:48:59;24.30;99.90
48328;DHT22;34136;51.022;7.082;2023-08-17T11:51:45;24.50;99.90
48328;DHT22;34136;51.022;7.082;2023-08-17T11:54:33;24.70;99.90
48328;DHT22;34136;51.022;7.082;2023-08-17T11:57:19;24.90;99.90
48328;DHT22;34136;51.022;7.082;2023-08-17T12:00:06;25.10;99.90
48328;DHT22;34136;51.022;7.082;2023-08-17T12:02:52;25.00;99.90
48328;DHT22;34136;51.022;7.082;2023-08-17T12:05:39;24.90;99.90
48328;DHT22;34136;51.022;7.082;2023-08-17T12:08:26;25.00;99.90
48328;DHT22;34136;51.022;7.082;2023-08-17T12:11:12;25.00;99.90
48328;DHT22;34136;51.022;7.082;2023-08-17T12:13:58;25.10;99.90
48328;DHT22;34136;51.022;7.082;2023-08-17T12:16:48;25.30;99.90
48328;DHT22;34136;51.022;7.082;2023-08-17T12:19:34;25.30;99.90
48328;DHT22;34136;51.022;7.082;2023-08-17T12:22:23;25.50;99.90
48328;DHT22;34136;51.022;7.082;2023-08-17T12:25:10;25.60;99.90
48328;DHT22;34136;51.022;7.082;2023-08-17T12:27:58;25.50;99.90
48328;DHT22;34136;51.022;7.082;2023-08-17T12:30:44;25.60;99.90
48328;DHT22;34136;51.022;7.082;2023-08-17T12:33:31;25.60;99.90
48328;DHT22;34136;51.022;7.082;2023-08-17T12:36:17;25.80;99.90
48328;DHT22;34136;51.022;7.082;2023-08-17T12:39:03;25.80;99.90
48328;DHT22;34136;51.022;7.082;2023-08-17T12:41:50;25.90;99.90
48328;DHT22;34136;51.022;7.082;2023-08-17T12:44:36;26.10;99.90
48328;DHT22;34136;51.022;7.082;2023-08-17T12:47:22;26.40;99.90
48328;DHT22;34136;51.022;7.082;2023-08-17T12:50:09;26.40;99.90
48328;DHT22;34136;51.022;7.082;2023-08-17T12:52:55;26.30;99.90
48328;DHT22;34136;51.022;7.082;2023-08-17T12:55:42;25.90;99.90
48328;DHT22;34136;51.022;7.082;2023-08-17T12:58:28;26.20;99.90
48328;DHT22;34136;51.022;7.082;2023-08-17T13:01:14;26.10;99.90
48328;DHT22;34136;51.022;7.082;2023-08-17T13:04:01;26.10;99.90
48328;DHT22;34136;51.022;7.082;2023-08-17T13:06:47;26.10;99.90
48328;DHT22;34136;51.022;7.082;2023-08-17T13:09:33;26.20;99.90
48328;DHT22;34136;51.022;7.082;2023-08-17T13:12:19;26.30;99.90
48328;DHT22;34136;51.022;7.082;2023-08-17T13:15:06;26.10;99.90
48328;DHT22;34136;51.022;7.082;2023-08-17T13:17:52;25.80;99.90
48328;DHT22;34136;51.022;7.082;2023-08-17T13:20:39;25.90;99.90
48328;DHT22;34136;51.022;7.082;2023-08-17T13:23:25;25.70;99.90
48328;DHT22;34136;51.022;7.082;2023-08-17T13:26:11;25.70;99.90
48328;DHT22;34136;51.022;7.082;2023-08-17T13:28:57;25.70;99.90
48328;DHT22;34136;51.022;7.082;2023-08-17T13:31:45;25.70;99.90
48328;DHT22;34136;51.022;7.082;2023-08-17T13:34:32;25.80;99.90
48328;DHT22;34136;51.022;7.082;2023-08-17T13:37:18;25.90;99.90
48328;DHT22;34136;51.022;7.082;2023-08-17T13:40:05;25.90;99.90
48328;DHT22;34136;51.022;7.082;2023-08-17T13:42:52;25.90;99.90
48328;DHT22;34136;51.022;7.082;2023-08-17T13:45:39;25.80;99.90
48328;DHT22;34136;51.022;7.082;2023-08-17T13:48:25;25.90;99.90
48328;DHT22;34136;51.022;7.082;2023-08-17T13:51:12;26.00;99.90
48328;DHT22;34136;51.022;7.082;2023-08-17T13:53:58;26.10;99.90
48328;DHT22;34136;51.022;7.082;2023-08-17T13:56:45;26.10;99.90
48328;DHT22;34136;51.022;7.082;2023-08-17T13:59:31;26.20;99.90
48328;DHT22;34136;51.022;7.082;2023-08-17T14:02:18;26.40;99.90
48328;DHT22;34136;51.022;7.082;2023-08-17T14:05:05;26.30;99.90
48328;DHT22;34136;51.022;7.082;2023-08-17T14:07:51;26.30;99.90
48328;DHT22;34136;51.022;7.082;2023-08-17T14:10:37;26.30;99.90
48328;DHT22;34136;51.022;7.082;2023-08-17T14:13:23;26.30;99.90
48328;DHT22;34136;51.022;7.082;2023-08-17T14:16:09;26.40;99.90
48328;DHT22;34136;51.022;7.082;2023-08-17T14:18:55;26.50;99.90
48328;DHT22;34136;51.022;7.082;2023-08-17T14:21:42;26.50;99.90
48328;DHT22;34136;51.022;7.082;2023-08-17T14:24:28;26.30;99.90
48328;DHT22;34136;51.022;7.082;2023-08-17T14:27:14;26.40;99.90
48328;DHT22;34136;51.022;7.082;2023-08-17T14:30:01;26.50;99.90
48328;DHT22;34136;51.022;7.082;2023-08-17T14:32:47;26.60;99.90
48328;DHT22;34136;51.022;7.082;2023-08-17T14:35:34;26.30;99.90
48328;DHT22;34136;51.022;7.082;2023-08-17T14:38:20;26.10;99.90
48328;DHT22;34136;51.022;7.082;2023-08-17T14:41:06;25.90;99.90
48328;DHT22;34136;51.022;7.082;2023-08-17T14:43:53;25.80;99.90
48328;DHT22;34136;51.022;7.082;2023-08-17T14:46:39;25.70;99.90
48328;DHT22;34136;51.022;7.082;2023-08-17T14:49:25;25.70;99.90
48328;DHT22;34136;51.022;7.082;2023-08-17T14:52:12;25.70;99.90
48328;DHT22;34136;51.022;7.082;2023-08-17T14:54:58;25.80;99.90
48328;DHT22;34136;51.022;7.082;2023-08-17T14:57:44;25.90;99.90
48328;DHT22;34136;51.022;7.082;2023-08-17T15:00:31;26.00;99.90
48328;DHT22;34136;51.022;7.082;2023-08-17T15:03:17;25.70;99.90
48328;DHT22;34136;51.022;7.082;2023-08-17T15:06:03;25.60;99.90
48328;DHT22;34136;51.022;7.082;2023-08-17T15:08:52;25.70;99.90
48328;DHT22;34136;51.022;7.082;2023-08-17T15:11:38;25.40;99.90
48328;DHT22;34136;51.022;7.082;2023-08-17T15:14:24;25.60;99.90
48328;DHT22;34136;51.022;7.082;2023-08-17T15:17:10;25.50;99.90
48328;DHT22;34136;51.022;7.082;2023-08-17T15:19:58;25.50;99.90
48328;DHT22;34136;51.022;7.082;2023-08-17T15:22:45;25.70;99.90
48328;DHT22;34136;51.022;7.082;2023-08-17T15:25:31;25.30;99.90
48328;DHT22;34136;51.022;7.082;2023-08-17T15:28:17;25.40;99.90
48328;DHT22;34136;51.022;7.082;2023-08-17T15:31:03;25.40;99.90
48328;DHT22;34136;51.022;7.082;2023-08-17T15:33:50;25.70;99.90
48328;DHT22;34136;51.022;7.082;2023-08-17T15:36:36;25.70;99.90
48328;DHT22;34136;51.022;7.082;2023-08-17T15:39:22;25.60;99.90
48328;DHT22;34136;51.022;7.082;2023-08-17T15:42:08;25.60;99.90
48328;DHT22;34136;51.022;7.082;2023-08-17T15:44:55;25.70;99.90
48328;DHT22;34136;51.022;7.082;2023-08-17T15:47:41;25.50;99.90
48328;DHT22;34136;51.022;7.082;2023-08-17T15:50:29;25.50;99.90
48328;DHT22;34136;51.022;7.082;2023-08-17T15:53:15;25.20;99.90
48328;DHT22;34136;51.022;7.082;2023-08-17T15:56:02;25.30;99.90
48328;DHT22;34136;51.022;7.082;2023-08-17T15:58:48;25.30;99.90
48328;DHT22;34136;51.022;7.082;2023-08-17T16:01:35;25.20;99.90
48328;DHT22;34136;51.022;7.082;2023-08-17T16:04:21;25.20;99.90
48328;DHT22;34136;51.022;7.082;2023-08-17T16:07:07;25.20;99.90
48328;DHT22;34136;51.022;7.082;2023-08-17T16:09:53;25.30;99.90
48328;DHT22;34136;51.022;7.082;2023-08-17T16:12:39;25.30;99.90
48328;DHT22;34136;51.022;7.082;2023-08-17T16:15:25;25.10;99.90
48328;DHT22;34136;51.022;7.082;2023-08-17T16:18:11;25.00;99.90
48328;DHT22;34136;51.022;7.082;2023-08-17T16:20:57;25.00;99.90
48328;DHT22;34136;51.022;7.082;2023-08-17T16:23:43;25.00;99.90
48328;DHT22;34136;51.022;7.082;2023-08-17T16:26:29;25.20;99.90
48328;DHT22;34136;51.022;7.082;2023-08-17T16:29:16;25.10;99.90
48328;DHT22;34136;51.022;7.082;2023-08-17T16:32:03;25.10;99.90
48328;DHT22;34136;51.022;7.082;2023-08-17T16:34:49;25.10;99.90
48328;DHT22;34136;51.022;7.082;2023-08-17T16:37:36;25.10;99.90
48328;DHT22;34136;51.022;7.082;2023-08-17T16:40:22;25.00;99.90
48328;DHT22;34136;51.022;7.082;2023-08-17T16:43:08;25.00;99.90
48328;DHT22;34136;51.022;7.082;2023-08-17T16:45:54;25.00;99.90
48328;DHT22;34136;51.022;7.082;2023-08-17T16:48:40;25.10;99.90
48328;DHT22;34136;51.022;7.082;2023-08-17T16:51:27;24.90;99.90
48328;DHT22;34136;51.022;7.082;2023-08-17T16:54:13;25.10;99.90
48328;DHT22;34136;51.022;7.082;2023-08-17T16:56:59;25.00;99.90
48328;DHT22;34136;51.022;7.082;2023-08-17T16:59:46;25.10;99.90
48328;DHT22;34136;51.022;7.082;2023-08-17T17:02:32;25.00;99.90
48328;DHT22;34136;51.022;7.082;2023-08-17T17:05:19;24.80;99.90
48328;DHT22;34136;51.022;7.082;2023-08-17T17:08:05;24.70;99.90
48328;DHT22;34136;51.022;7.082;2023-08-17T17:10:51;24.70;99.90
48328;DHT22;34136;51.022;7.082;2023-08-17T17:13:37;24.70;99.90
48328;DHT22;34136;51.022;7.082;2023-08-17T17:16:23;24.60;99.90
48328;DHT22;34136;51.022;7.082;2023-08-17T17:19:09;24.60;99.90
48328;DHT22;34136;51.022;7.082;2023-08-17T17:21:56;24.50;99.90
48328;DHT22;34136;51.022;7.082;2023-08-17T17:24:42;24.20;99.90
48328;DHT22;34136;51.022;7.082;2023-08-17T17:27:28;24.00;99.90
48328;DHT22;34136;51.022;7.082;2023-08-17T17:30:14;23.90;99.90
48328;DHT22;34136;51.022;7.082;2023-08-17T17:33:00;23.90;99.90
48328;DHT22;34136;51.022;7.082;2023-08-17T17:35:47;23.80;99.90
48328;DHT22;34136;51.022;7.082;2023-08-17T17:38:33;23.80;99.90
48328;DHT22;34136;51.022;7.082;2023-08-17T17:41:19;23.70;99.90
48328;DHT22;34136;51.022;7.082;2023-08-17T17:44:05;23.80;99.90
48328;DHT22;34136;51.022;7.082;2023-08-17T17:46:52;23.80;99.90